»·PEaware :: N81GF KFAR-KMOT

N81GF :: KFAR-KMOT

FLIGHT INFORMATION

Flight Status: Arrived
Operator: Privately registered:
United States
More flights under this callsign
Pilot: Stephen F. (29053)
Aircraft: PILATUS PC-12 EAGLE
(PC12)
More flights by this aircraft type
Origin: KFAR Hector Intl
United States
Destination: KMOT Minot Intl
United States
More flights between these airports :: More routes between these airports
Route:
File this flight plan on PilotEdge
Remarks:
Altitude:
(Current/Filed)
20,000ft
Speed:
(Current/Filed)
260kts
Departed: 21-Apr-20 06:11 AM
Arrived: 21-Apr-20 07:17 AM
Distance/Time
Traveled:
198nm/1:06
Distance/Time
To Go:
Arrived

Flight Plot

Page will automatically refresh every two minutes.

Flight plan parsing failed; only flown route is shown


Map Options




Map Legend


Flown Route
Filed Route
Departure Airport
Arrival Airport
Navaid (VOR, NDB)
Fix

Horizontal Profiles

Position Reports

Time Latitude Longitude Heading Altitude Ground
Speed
21-Apr-20 05:53 46.929167 -96.807835 179 907ft 0kts
21-Apr-20 05:54 46.929167 -96.807835 179 907ft 0kts
21-Apr-20 05:55 46.929167 -96.807835 179 907ft 0kts
21-Apr-20 05:56 46.929167 -96.807835 179 907ft 0kts
21-Apr-20 05:57 46.929167 -96.807835 179 907ft 0kts
21-Apr-20 05:58 46.929167 -96.807835 179 907ft 0kts
21-Apr-20 05:59 46.929167 -96.807835 179 907ft 0kts
21-Apr-20 06:00 46.929167 -96.807835 179 907ft 0kts
21-Apr-20 06:01 46.929167 -96.807835 179 907ft 0kts
21-Apr-20 06:02 46.929167 -96.807835 179 907ft 0kts
21-Apr-20 06:03 46.929167 -96.807835 179 907ft 0kts
21-Apr-20 06:04 46.929167 -96.807835 179 907ft 0kts
21-Apr-20 06:05 46.929167 -96.807835 179 907ft 0kts
21-Apr-20 06:06 46.929167 -96.807835 179 907ft 0kts
21-Apr-20 06:07 46.928907 -96.807324 92 907ft 7kts
21-Apr-20 06:08 46.928122 -96.804292 90 907ft 13kts
21-Apr-20 06:09 46.927100 -96.802233 191 907ft 1kts
21-Apr-20 06:10 46.927297 -96.823728 282 1331ft 103kts
21-Apr-20 06:11 46.939146 -96.872241 292 2948ft 139kts
21-Apr-20 06:12 46.956482 -96.926196 298 4794ft 151kts
21-Apr-20 06:13 46.974655 -96.981764 297 6613ft 150kts
21-Apr-20 06:14 46.992401 -97.036402 298 8412ft 146kts
21-Apr-20 06:15 47.009532 -97.089292 300 10218ft 140kts
21-Apr-20 06:16 47.025595 -97.138987 301 12020ft 129kts
21-Apr-20 06:17 47.040378 -97.184792 303 13728ft 123kts
21-Apr-20 06:18 47.055234 -97.230842 303 15210ft 127kts
21-Apr-20 06:19 47.070466 -97.278197 303 16614ft 128kts
21-Apr-20 06:20 47.085968 -97.326445 304 17855ft 132kts
21-Apr-20 06:21 47.101799 -97.375826 304 18968ft 136kts
21-Apr-20 06:22 47.118220 -97.427159 304 19943ft 141kts
21-Apr-20 06:23 47.136622 -97.484564 303 20112ft 170kts
21-Apr-20 06:24 47.157682 -97.550791 303 20106ft 184kts
21-Apr-20 06:26 47.179637 -97.620040 303 20103ft 188kts
21-Apr-20 06:27 47.201801 -97.690086 303 20100ft 189kts
21-Apr-20 06:28 47.223989 -97.760380 303 20098ft 189kts
21-Apr-20 06:29 47.246177 -97.830861 303 20094ft 190kts
21-Apr-20 06:30 47.268409 -97.901676 302 20092ft 190kts
21-Apr-20 06:31 47.290499 -97.972240 302 20089ft 190kts
21-Apr-20 06:32 47.312728 -98.043436 302 20086ft 191kts
21-Apr-20 06:33 47.334981 -98.114925 302 20084ft 192kts
21-Apr-20 06:34 47.357214 -98.186554 302 20084ft 192kts
21-Apr-20 06:35 47.379429 -98.258330 302 20083ft 192kts
21-Apr-20 06:36 47.401590 -98.330133 302 20082ft 192kts
21-Apr-20 06:37 47.423871 -98.402532 302 20080ft 193kts
21-Apr-20 06:38 47.446036 -98.474766 301 20078ft 193kts
21-Apr-20 06:39 47.468191 -98.547180 301 20080ft 193kts
21-Apr-20 06:40 47.490420 -98.620035 301 20071ft 194kts
21-Apr-20 06:41 47.512622 -98.693029 301 20059ft 195kts
21-Apr-20 06:42 47.534846 -98.766309 301 20056ft 195kts
21-Apr-20 06:43 47.557103 -98.839918 301 20056ft 195kts
21-Apr-20 06:44 47.579262 -98.913416 301 20055ft 196kts
21-Apr-20 06:45 47.601467 -98.987288 301 20056ft 196kts
21-Apr-20 06:46 47.623644 -99.061289 301 20055ft 196kts
21-Apr-20 06:47 47.645796 -99.135423 301 20051ft 197kts
21-Apr-20 06:48 47.667987 -99.209918 301 20048ft 197kts
21-Apr-20 06:49 47.690246 -99.284871 301 20044ft 198kts
21-Apr-20 06:50 47.712364 -99.359573 300 20040ft 198kts
21-Apr-20 06:51 47.734492 -99.434538 300 20034ft 198kts
21-Apr-20 06:52 47.756696 -99.509997 300 20024ft 199kts
21-Apr-20 06:52 47.775188 -99.573016 300 20011ft 199kts
21-Apr-20 06:54 47.801036 -99.661373 300 20001ft 200kts
21-Apr-20 06:54 47.819532 -99.724804 300 19996ft 200kts
21-Apr-20 06:56 47.845351 -99.813623 300 19995ft 200kts
21-Apr-20 06:56 47.863761 -99.877152 300 19994ft 200kts
21-Apr-20 06:57 47.885778 -99.953345 300 19993ft 200kts
21-Apr-20 06:58 47.907754 -100.029638 300 19991ft 200kts
21-Apr-20 06:59 47.929726 -100.106160 300 19985ft 200kts
21-Apr-20 07:00 47.951631 -100.182686 300 19978ft 200kts
21-Apr-20 07:01 47.973635 -100.259735 300 19743ft 208kts
21-Apr-20 07:02 47.997697 -100.344160 298 18264ft 229kts
21-Apr-20 07:03 48.022805 -100.432873 298 16768ft 232kts
21-Apr-20 07:04 48.047802 -100.521472 297 15269ft 230kts
21-Apr-20 07:05 48.072690 -100.609954 296 13768ft 230kts
21-Apr-20 07:07 48.101078 -100.711298 296 12021ft 225kts
21-Apr-20 07:08 48.145753 -100.871629 292 9269ft 231kts
21-Apr-20 07:09 48.170369 -100.960462 292 7767ft 228kts
21-Apr-20 07:11 48.198625 -101.062838 290 6016ft 228kts
21-Apr-20 07:11 48.218786 -101.136162 290 4768ft 229kts
21-Apr-20 07:12 48.250543 -101.213620 306 3832ft 207kts
21-Apr-20 07:13 48.285469 -101.275005 307 3118ft 170kts
21-Apr-20 07:14 48.283182 -101.314247 154 2408ft 101kts
21-Apr-20 07:15 48.263921 -101.286987 136 1729ft 77kts
21-Apr-20 07:16 48.258018 -101.280974 269 1721ft 8kts
21-Apr-20 07:17 48.259406 -101.283199 318 1721ft 11kts
21-Apr-20 07:18 48.263367 -101.288467 319 1721ft 21kts
21-Apr-20 07:19 48.262559 -101.290298 189 1721ft 13kts
21-Apr-20 07:20 48.262036 -101.292870 278 1721ft 7kts
21-Apr-20 07:21 48.260718 -101.293319 99 1721ft 0kts
21-Apr-20 07:22 48.260718 -101.293319 99 1721ft 0kts

Navigation Log

Ident Type
Flight plan parsing failed, navigation log unavailable